createdAt,value
2023-12-20T00:01:33.481Z,7.04
2023-12-20T00:04:02.020Z,7.01
2023-12-20T00:06:30.469Z,6.97
2023-12-20T00:08:59.057Z,6.92
2023-12-20T00:11:27.376Z,6.87
2023-12-20T00:13:55.722Z,6.83
2023-12-20T00:16:25.483Z,6.78
2023-12-20T00:18:53.920Z,6.75
2023-12-20T00:21:22.327Z,6.75
2023-12-20T00:23:50.648Z,6.73
2023-12-20T00:26:19.045Z,6.72
2023-12-20T00:28:47.469Z,6.72
2023-12-20T00:31:16.009Z,6.71
2023-12-20T00:33:47.693Z,6.70
2023-12-20T00:36:16.138Z,6.68
2023-12-20T00:38:45.593Z,6.67
2023-12-20T00:41:13.995Z,6.66
2023-12-20T00:43:42.283Z,6.66
2023-12-20T00:46:10.830Z,6.66
2023-12-20T00:48:39.273Z,6.69
2023-12-20T00:51:09.333Z,6.73
2023-12-20T00:53:37.657Z,6.78
2023-12-20T00:56:06.443Z,6.84
2023-12-20T00:58:35.032Z,6.88
2023-12-20T01:01:03.640Z,6.93
2023-12-20T01:03:32.532Z,7.00
2023-12-20T01:06:01.106Z,7.06
2023-12-20T01:08:30.857Z,7.13
2023-12-20T01:10:59.227Z,7.18
2023-12-20T01:13:27.608Z,7.22
2023-12-20T01:15:56.753Z,7.25
2023-12-20T01:18:25.078Z,7.28
2023-12-20T01:20:53.465Z,7.29
2023-12-20T01:23:21.865Z,7.32
2023-12-20T01:25:51.618Z,7.33
2023-12-20T01:28:19.974Z,7.34
2023-12-20T01:30:48.490Z,7.36
2023-12-20T01:33:16.790Z,7.40
2023-12-20T01:35:45.134Z,7.40
2023-12-20T01:38:13.563Z,7.45
2023-12-20T01:40:41.915Z,7.46
2023-12-20T01:43:13.535Z,7.48
2023-12-20T01:45:42.412Z,7.50
2023-12-20T01:48:12.219Z,7.51
2023-12-20T01:50:41.829Z,7.50
2023-12-20T01:53:12.722Z,7.50
2023-12-20T01:55:42.760Z,7.49
2023-12-20T01:58:13.548Z,7.50
2023-12-20T02:00:42.328Z,7.49
2023-12-20T02:03:10.997Z,7.52
2023-12-20T02:05:41.165Z,7.53
2023-12-20T02:08:09.851Z,7.55
2023-12-20T02:10:38.271Z,7.55
2023-12-20T02:13:06.947Z,7.55
2023-12-20T02:15:38.083Z,7.52
2023-12-20T02:18:07.502Z,7.50
2023-12-20T02:20:35.999Z,7.47
2023-12-20T02:23:06.041Z,7.44
2023-12-20T02:25:34.393Z,7.41
2023-12-20T02:28:03.029Z,7.37
2023-12-20T02:30:31.823Z,7.33
2023-12-20T02:33:01.852Z,7.32
2023-12-20T02:35:30.246Z,7.29
2023-12-20T02:37:58.620Z,7.27
2023-12-20T02:40:28.419Z,7.25
2023-12-20T02:42:56.818Z,7.24
2023-12-20T02:45:25.176Z,7.22
2023-12-20T02:47:53.541Z,7.22
2023-12-20T02:50:22.051Z,7.22
2023-12-20T02:52:50.352Z,7.21
2023-12-20T02:55:18.700Z,7.25
2023-12-20T02:57:48.717Z,7.41
2023-12-20T03:00:17.870Z,7.67
2023-12-20T03:02:46.214Z,7.98
2023-12-20T03:05:14.687Z,8.33
2023-12-20T03:07:43.277Z,8.67
2023-12-20T03:10:19.806Z,8.92
2023-12-20T03:12:53.566Z,9.08
2023-12-20T03:15:21.985Z,9.13
2023-12-20T03:17:50.754Z,9.13
2023-12-20T03:20:19.480Z,9.11
2023-12-20T03:22:47.801Z,9.06
2023-12-20T03:25:16.607Z,9.00
2023-12-20T03:27:45.220Z,8.91
2023-12-20T03:30:15.787Z,8.84
2023-12-20T03:32:44.197Z,8.76
2023-12-20T03:35:12.721Z,8.69
2023-12-20T03:37:41.138Z,8.62
2023-12-20T03:40:10.752Z,8.57
2023-12-20T03:42:39.268Z,8.52
2023-12-20T03:45:09.339Z,8.46
2023-12-20T03:47:39.048Z,8.44
2023-12-20T03:50:09.127Z,8.40
2023-12-20T03:52:37.674Z,8.37
2023-12-20T03:55:07.371Z,8.34
2023-12-20T03:57:35.762Z,8.33
2023-12-20T04:00:04.302Z,8.32
2023-12-20T04:02:32.682Z,8.34
2023-12-20T04:05:02.431Z,8.34
2023-12-20T04:07:31.059Z,8.39
2023-12-20T04:09:59.568Z,8.42
2023-12-20T04:12:29.498Z,8.46
2023-12-20T04:14:58.223Z,8.51
2023-12-20T04:17:26.582Z,8.57
2023-12-20T04:19:55.158Z,8.62
2023-12-20T04:22:25.336Z,8.68
2023-12-20T04:24:53.760Z,8.72
2023-12-20T04:27:22.148Z,8.76
2023-12-20T04:29:50.500Z,8.82
2023-12-20T04:32:18.839Z,8.93
2023-12-20T04:34:47.259Z,9.06
2023-12-20T04:37:15.685Z,9.16
2023-12-20T04:39:45.491Z,9.22
2023-12-20T04:42:13.979Z,9.25
2023-12-20T04:44:42.344Z,9.26
2023-12-20T04:47:10.724Z,9.25
2023-12-20T04:49:39.148Z,9.25
2023-12-20T04:52:08.181Z,9.26
2023-12-20T04:54:36.550Z,9.28
2023-12-20T04:57:06.765Z,9.30
2023-12-20T04:59:35.181Z,9.33
2023-12-20T05:02:03.524Z,9.43
2023-12-20T05:04:31.985Z,9.55
2023-12-20T05:07:00.546Z,9.71
2023-12-20T05:09:28.975Z,9.88
2023-12-20T05:11:57.319Z,10.08
2023-12-20T05:14:28.281Z,10.25
2023-12-20T05:16:57.683Z,10.45
2023-12-20T05:19:26.438Z,10.62
2023-12-20T05:21:54.947Z,10.79
2023-12-20T05:24:23.340Z,10.95
2023-12-20T05:26:53.740Z,11.08
2023-12-20T05:29:22.716Z,11.20
2023-12-20T05:31:52.478Z,11.32
2023-12-20T05:34:21.565Z,11.44
2023-12-20T05:36:50.086Z,11.54
2023-12-20T05:39:18.506Z,11.62
2023-12-20T05:41:46.920Z,11.72
2023-12-20T05:44:15.294Z,11.79
2023-12-20T05:46:43.643Z,11.86
2023-12-20T05:49:14.858Z,11.95
2023-12-20T05:51:43.366Z,12.02
2023-12-20T05:54:12.233Z,12.10
2023-12-20T05:56:40.550Z,12.16
2023-12-20T05:59:09.228Z,12.24
2023-12-20T06:01:37.676Z,12.32
2023-12-20T06:04:06.326Z,12.36
2023-12-20T06:06:36.350Z,12.41
2023-12-20T06:09:05.217Z,12.47
2023-12-20T06:11:33.555Z,12.51
2023-12-20T06:14:01.956Z,12.56
2023-12-20T06:16:30.355Z,12.61
2023-12-20T06:18:58.908Z,12.68
2023-12-20T06:21:27.318Z,12.74
2023-12-20T06:23:57.118Z,12.80
2023-12-20T06:26:25.499Z,12.82
2023-12-20T06:28:53.942Z,12.87
2023-12-20T06:31:22.317Z,12.91
2023-12-20T06:33:58.508Z,12.94
2023-12-20T06:36:27.051Z,12.97
2023-12-20T06:38:56.831Z,12.99
2023-12-20T06:41:25.662Z,13.01
2023-12-20T06:43:54.337Z,13.01
2023-12-20T06:46:21.921Z,13.04
2023-12-20T06:48:50.515Z,13.07
2023-12-20T06:51:20.964Z,13.09
2023-12-20T06:53:49.340Z,13.11
2023-12-20T06:56:19.867Z,13.15
2023-12-20T06:58:48.827Z,13.18
2023-12-20T07:01:18.664Z,13.24
2023-12-20T07:03:47.376Z,13.29
2023-12-20T07:06:17.905Z,13.35
2023-12-20T07:08:46.485Z,13.38
2023-12-20T07:11:15.015Z,13.45
2023-12-20T07:13:44.778Z,13.48
2023-12-20T07:16:13.145Z,13.55
2023-12-20T07:18:41.805Z,13.59
2023-12-20T07:21:10.234Z,13.63
2023-12-20T07:23:38.578Z,13.68
2023-12-20T07:26:06.924Z,13.69
2023-12-20T07:28:35.732Z,13.70
2023-12-20T07:31:06.038Z,13.66
2023-12-20T07:33:39.359Z,13.59
2023-12-20T07:36:09.410Z,13.46
2023-12-20T07:38:38.027Z,13.33
2023-12-20T07:41:06.641Z,13.20
2023-12-20T07:43:35.357Z,13.06
2023-12-20T07:46:09.153Z,12.93
2023-12-20T07:48:38.284Z,12.83
2023-12-20T07:51:08.764Z,12.73
2023-12-20T07:53:37.306Z,12.64
2023-12-20T07:56:16.541Z,12.55
2023-12-20T07:58:51.741Z,12.48
2023-12-20T08:01:23.784Z,12.39
2023-12-20T08:03:52.979Z,12.33
2023-12-20T08:06:21.815Z,12.24
2023-12-20T08:08:55.862Z,12.16
2023-12-20T08:11:32.608Z,12.10
2023-12-20T08:14:01.461Z,12.04
2023-12-20T08:16:31.293Z,11.96
2023-12-20T08:18:59.900Z,11.91
2023-12-20T08:21:28.698Z,11.92
2023-12-20T08:23:57.175Z,11.91
2023-12-20T08:26:25.630Z,11.94
2023-12-20T08:28:54.115Z,11.96
2023-12-20T08:31:23.335Z,12.01
2023-12-20T08:33:54.510Z,12.07
2023-12-20T08:36:24.629Z,12.13
2023-12-20T08:38:53.604Z,12.16
2023-12-20T08:41:22.279Z,12.20
2023-12-20T08:43:50.732Z,12.26
2023-12-20T08:46:19.312Z,12.31
2023-12-20T08:48:47.975Z,12.36
2023-12-20T08:51:17.941Z,12.42
2023-12-20T08:53:48.838Z,12.50
2023-12-20T08:56:19.171Z,12.57
2023-12-20T08:58:48.069Z,12.64
2023-12-20T09:01:17.143Z,12.68
2023-12-20T09:03:45.812Z,12.69
2023-12-20T09:06:14.522Z,12.72
2023-12-20T09:08:44.326Z,12.73
2023-12-20T09:11:13.221Z,12.76
2023-12-20T09:13:42.067Z,12.81
2023-12-20T09:16:11.042Z,12.85
2023-12-20T09:18:39.520Z,12.87
2023-12-20T09:21:07.914Z,12.90
2023-12-20T09:23:37.793Z,12.94
2023-12-20T09:26:07.734Z,12.91
2023-12-20T09:28:38.400Z,12.86
2023-12-20T09:31:07.872Z,12.78
2023-12-20T09:33:36.586Z,12.72
2023-12-20T09:36:05.700Z,12.62
2023-12-20T09:38:34.157Z,12.53
2023-12-20T09:41:05.053Z,12.47
2023-12-20T09:43:40.141Z,12.45
2023-12-20T09:46:09.661Z,12.43
2023-12-20T09:48:39.658Z,12.41
2023-12-20T09:51:08.428Z,12.40
2023-12-20T09:53:41.615Z,12.34
2023-12-20T09:56:10.429Z,12.28
2023-12-20T09:58:41.554Z,12.17
2023-12-20T10:01:11.121Z,12.13
2023-12-20T10:03:43.366Z,12.07
2023-12-20T10:06:12.830Z,12.04
2023-12-20T10:08:41.613Z,11.99
2023-12-20T10:11:10.040Z,11.95
2023-12-20T10:13:42.685Z,11.89
2023-12-20T10:16:11.590Z,11.87
2023-12-20T10:18:40.451Z,11.87
2023-12-20T10:21:11.387Z,11.83
2023-12-20T10:23:42.125Z,11.82
2023-12-20T10:26:11.164Z,11.84
2023-12-20T10:28:41.052Z,11.86
2023-12-20T10:31:09.623Z,11.86
2023-12-20T10:33:38.248Z,11.84
2023-12-20T10:36:09.120Z,11.82
2023-12-20T10:38:40.927Z,11.81
2023-12-20T10:41:12.189Z,11.82
2023-12-20T10:43:42.995Z,11.85
2023-12-20T10:46:11.597Z,11.87
2023-12-20T10:48:41.867Z,11.89
2023-12-20T10:51:11.235Z,11.94
2023-12-20T10:53:42.989Z,12.02
2023-12-20T10:56:17.929Z,12.07
2023-12-20T10:58:48.925Z,12.11
2023-12-20T11:01:19.369Z,12.11
2023-12-20T11:03:52.256Z,12.15
2023-12-20T11:06:34.793Z,12.21
2023-12-20T11:09:14.700Z,12.26
2023-12-20T11:12:01.634Z,12.28
2023-12-20T11:14:41.401Z,12.31
2023-12-20T11:17:11.196Z,12.38
2023-12-20T11:20:13.375Z,12.40
2023-12-20T11:22:54.217Z,12.43
2023-12-20T11:25:23.030Z,12.43
2023-12-20T11:28:10.183Z,12.39
2023-12-20T11:30:49.889Z,12.39
2023-12-20T11:33:19.005Z,12.40
2023-12-20T11:35:49.609Z,12.42
2023-12-20T11:38:18.151Z,12.44
2023-12-20T11:40:46.742Z,12.46
2023-12-20T11:43:31.438Z,12.47
2023-12-20T11:46:07.086Z,12.51
2023-12-20T11:48:37.598Z,12.56
2023-12-20T11:51:11.910Z,12.61
2023-12-20T11:53:40.331Z,12.67
2023-12-20T11:56:09.449Z,12.73
2023-12-20T11:58:38.429Z,12.80
2023-12-20T12:01:10.207Z,12.88
2023-12-20T12:03:38.780Z,12.97
2023-12-20T12:06:09.024Z,13.07
2023-12-20T12:08:38.996Z,13.20
2023-12-20T12:11:07.744Z,13.33
2023-12-20T12:13:36.463Z,13.46
2023-12-20T12:16:06.685Z,13.57
2023-12-20T12:18:36.893Z,13.61
2023-12-20T12:21:10.579Z,13.68
2023-12-20T12:23:44.099Z,13.70
2023-12-20T12:26:12.537Z,13.77
2023-12-20T12:28:43.502Z,13.83
2023-12-20T12:31:15.925Z,13.82
2023-12-20T12:33:46.330Z,13.82
2023-12-20T12:36:17.306Z,13.80
2023-12-20T12:38:45.788Z,13.76
2023-12-20T12:41:16.517Z,13.73
2023-12-20T12:43:44.950Z,13.69
2023-12-20T12:46:13.871Z,13.64
2023-12-20T12:48:43.990Z,13.60
2023-12-20T12:51:15.766Z,13.59
2023-12-20T12:53:44.298Z,13.59
2023-12-20T12:56:14.942Z,13.55
2023-12-20T12:58:43.410Z,13.54
2023-12-20T13:01:11.842Z,13.56
2023-12-20T13:03:40.341Z,13.56
2023-12-20T13:06:10.167Z,13.52
2023-12-20T13:08:40.108Z,13.50
2023-12-20T13:11:08.695Z,13.51
2023-12-20T13:13:37.751Z,13.55
2023-12-20T13:16:07.337Z,13.58
2023-12-20T13:18:35.976Z,13.61
2023-12-20T13:21:04.637Z,13.63
2023-12-20T13:23:33.037Z,13.64
2023-12-20T13:26:02.843Z,13.64
2023-12-20T13:28:31.410Z,13.64
2023-12-20T13:31:00.082Z,13.65
2023-12-20T13:33:28.614Z,13.62
2023-12-20T13:35:59.516Z,13.58
2023-12-20T13:38:28.033Z,13.56
2023-12-20T13:40:56.401Z,13.56
2023-12-20T13:43:26.227Z,13.52
2023-12-20T13:45:54.760Z,13.49
2023-12-20T13:48:23.277Z,13.46
2023-12-20T13:50:51.700Z,13.41
2023-12-20T13:53:20.312Z,13.36
2023-12-20T13:55:48.707Z,13.32
2023-12-20T13:58:17.179Z,13.31
2023-12-20T14:00:47.142Z,13.27
2023-12-20T14:03:15.595Z,13.20
2023-12-20T14:05:44.223Z,13.13
2023-12-20T14:08:12.874Z,13.05
2023-12-20T14:10:41.472Z,12.99
2023-12-20T14:13:09.979Z,12.97
2023-12-20T14:15:38.550Z,12.91
2023-12-20T14:18:10.004Z,12.86
2023-12-20T14:20:40.775Z,12.79
2023-12-20T14:23:09.180Z,12.71
2023-12-20T14:25:46.176Z,12.64
2023-12-20T14:28:20.305Z,12.55
2023-12-20T14:30:50.415Z,12.49
2023-12-20T14:33:22.868Z,12.44
2023-12-20T14:35:51.689Z,12.38
2023-12-20T14:38:20.662Z,12.34
2023-12-20T14:40:49.171Z,12.34
2023-12-20T14:43:17.910Z,12.35
2023-12-20T14:45:46.714Z,12.38
2023-12-20T14:48:15.252Z,12.39
2023-12-20T14:50:45.456Z,12.38
2023-12-20T14:53:13.887Z,12.34
2023-12-20T14:55:42.361Z,12.29
2023-12-20T14:58:10.911Z,12.25
2023-12-20T15:00:39.884Z,12.19
2023-12-20T15:03:08.484Z,12.17
2023-12-20T15:05:37.608Z,12.15
2023-12-20T15:08:08.527Z,12.13
2023-12-20T15:10:37.414Z,12.11
2023-12-20T15:13:07.332Z,12.10
2023-12-20T15:15:36.141Z,12.08
2023-12-20T15:18:05.287Z,12.07
2023-12-20T15:20:35.002Z,12.04
2023-12-20T15:23:08.033Z,12.01
2023-12-20T15:25:37.964Z,12.00
2023-12-20T15:28:06.674Z,12.02
2023-12-20T15:30:37.581Z,12.06
2023-12-20T15:33:07.836Z,12.09
2023-12-20T15:35:36.614Z,12.16
2023-12-20T15:38:06.202Z,12.22
2023-12-20T15:40:34.782Z,12.27
2023-12-20T15:43:04.727Z,12.35
2023-12-20T15:45:33.126Z,12.41
2023-12-20T15:48:01.831Z,12.47
2023-12-20T15:50:30.336Z,12.52
2023-12-20T15:52:58.754Z,12.55
2023-12-20T15:55:27.290Z,12.55
2023-12-20T15:57:56.000Z,12.56
2023-12-20T16:00:25.833Z,12.58
2023-12-20T16:02:54.492Z,12.62
2023-12-20T16:05:23.430Z,12.58
2023-12-20T16:07:52.477Z,12.59
2023-12-20T16:10:21.288Z,12.56
2023-12-20T16:12:48.722Z,12.53
2023-12-20T16:15:19.063Z,12.49
2023-12-20T16:17:49.142Z,12.46
2023-12-20T16:20:18.217Z,12.44
2023-12-20T16:22:46.700Z,12.43
2023-12-20T16:25:15.113Z,12.40
2023-12-20T16:27:46.305Z,12.34
2023-12-20T16:30:16.988Z,12.30
2023-12-20T16:32:45.708Z,12.24
2023-12-20T16:35:15.969Z,12.16
2023-12-20T16:37:44.564Z,12.10
2023-12-20T16:40:14.159Z,12.04
2023-12-20T16:42:42.708Z,11.97
2023-12-20T16:45:11.761Z,11.90
2023-12-20T16:47:40.188Z,11.85
2023-12-20T16:50:10.890Z,11.82
2023-12-20T16:52:41.729Z,11.76
2023-12-20T16:55:12.860Z,11.73
2023-12-20T16:57:41.699Z,11.69
2023-12-20T17:00:11.068Z,11.65
2023-12-20T17:02:40.704Z,11.61
2023-12-20T17:05:11.537Z,11.58
2023-12-20T17:07:41.884Z,11.54
2023-12-20T17:10:11.182Z,11.51
2023-12-20T17:12:39.588Z,11.48
2023-12-20T17:15:09.222Z,11.45
2023-12-20T17:17:38.108Z,11.42
2023-12-20T17:20:08.819Z,11.40
2023-12-20T17:22:37.236Z,11.38
2023-12-20T17:25:12.604Z,11.36
2023-12-20T17:27:42.212Z,11.34
2023-12-20T17:30:12.214Z,11.31
2023-12-20T17:32:41.150Z,11.28
2023-12-20T17:35:10.184Z,11.24
2023-12-20T17:37:38.684Z,11.20
2023-12-20T17:40:12.260Z,11.17
2023-12-20T17:42:40.617Z,11.14
2023-12-20T17:45:09.444Z,11.10
2023-12-20T17:47:38.195Z,11.08
2023-12-20T17:50:08.247Z,11.04
2023-12-20T17:52:36.759Z,11.01
2023-12-20T17:55:07.232Z,10.99
2023-12-20T17:57:35.676Z,10.96
2023-12-20T18:00:16.419Z,10.91
2023-12-20T18:02:45.758Z,10.90
2023-12-20T18:05:16.229Z,10.88
2023-12-20T18:07:48.021Z,10.87
2023-12-20T18:10:20.585Z,10.85
2023-12-20T18:12:50.567Z,10.83
2023-12-20T18:15:20.979Z,10.83
2023-12-20T18:17:51.014Z,10.83
2023-12-20T18:20:20.994Z,10.84
2023-12-20T18:22:50.810Z,10.84
2023-12-20T18:25:23.766Z,10.84
2023-12-20T18:27:54.034Z,10.86
2023-12-20T18:30:26.041Z,10.87
2023-12-20T18:32:56.493Z,10.88
2023-12-20T18:35:27.761Z,10.90
2023-12-20T18:37:58.412Z,10.91
2023-12-20T18:40:30.650Z,10.92
2023-12-20T18:43:01.234Z,10.93
2023-12-20T18:45:32.627Z,10.93
2023-12-20T18:48:03.391Z,10.92
2023-12-20T18:50:34.318Z,10.91
2023-12-20T18:53:04.725Z,10.92
2023-12-20T18:55:36.869Z,10.92
2023-12-20T18:58:07.748Z,10.92
2023-12-20T19:00:39.263Z,10.93
2023-12-20T19:03:10.199Z,10.94
2023-12-20T19:05:40.753Z,10.92
2023-12-20T19:08:11.521Z,10.89
2023-12-20T19:10:43.804Z,10.88
2023-12-20T19:13:14.848Z,10.87
2023-12-20T19:15:47.699Z,10.86
2023-12-20T19:18:20.932Z,10.85
2023-12-20T19:20:51.643Z,10.83
2023-12-20T19:23:23.499Z,10.81
2023-12-20T19:25:55.898Z,10.78
2023-12-20T19:28:26.842Z,10.77
2023-12-20T19:30:59.701Z,10.79
2023-12-20T19:33:30.775Z,10.78
2023-12-20T19:36:01.532Z,10.76
2023-12-20T19:38:32.848Z,10.77
2023-12-20T19:41:05.893Z,10.78
2023-12-20T19:43:37.500Z,10.78
2023-12-20T19:46:09.257Z,10.79
2023-12-20T19:48:40.514Z,10.78
2023-12-20T19:51:12.865Z,10.80
2023-12-20T19:53:43.972Z,10.81
2023-12-20T19:56:17.734Z,10.82
2023-12-20T19:58:49.170Z,10.85
2023-12-20T20:01:20.695Z,10.83
2023-12-20T20:03:52.402Z,10.87
2023-12-20T20:06:23.863Z,10.87
2023-12-20T20:08:56.927Z,10.86
2023-12-20T20:11:35.314Z,10.87
2023-12-20T20:14:08.385Z,10.86
2023-12-20T20:16:39.601Z,10.88
2023-12-20T20:19:10.907Z,10.90
2023-12-20T20:21:45.000Z,10.90
2023-12-20T20:24:16.450Z,10.90
2023-12-20T20:26:49.337Z,10.92
2023-12-20T20:29:20.725Z,10.94
2023-12-20T20:31:51.846Z,10.93
2023-12-20T20:34:23.084Z,10.94
2023-12-20T20:36:53.662Z,10.95
2023-12-20T20:39:24.659Z,10.98
2023-12-20T20:41:57.288Z,10.98
2023-12-20T20:44:28.246Z,10.97
2023-12-20T20:46:59.621Z,10.98
2023-12-20T20:49:30.825Z,10.99
2023-12-20T20:52:01.691Z,10.97
2023-12-20T20:54:32.917Z,10.97
2023-12-20T20:57:05.512Z,10.95
2023-12-20T20:59:36.250Z,10.94
2023-12-20T21:02:05.036Z,10.95
2023-12-20T21:04:33.939Z,10.92
2023-12-20T21:07:02.529Z,10.92
2023-12-20T21:09:30.934Z,10.93
2023-12-20T21:11:59.335Z,10.95
2023-12-20T21:14:29.044Z,10.95
2023-12-20T21:16:57.458Z,10.96
2023-12-20T21:19:25.996Z,10.98
2023-12-20T21:21:54.429Z,10.98
2023-12-20T21:24:22.874Z,10.98
2023-12-20T21:26:51.214Z,10.98
2023-12-20T21:29:19.601Z,10.97
2023-12-20T21:31:49.453Z,10.99
2023-12-20T21:34:18.002Z,11.00
2023-12-20T21:36:46.469Z,10.99
2023-12-20T21:39:15.227Z,10.99
2023-12-20T21:41:43.616Z,11.01
2023-12-20T21:44:11.978Z,10.99
2023-12-20T21:46:41.750Z,11.02
2023-12-20T21:49:11.682Z,11.01
2023-12-20T21:51:40.140Z,11.05
2023-12-20T21:54:08.524Z,11.07
2023-12-20T21:56:37.916Z,11.09
2023-12-20T21:59:06.334Z,11.11
2023-12-20T22:01:34.851Z,11.13
2023-12-20T22:04:03.381Z,11.16
2023-12-20T22:06:33.421Z,11.18
2023-12-20T22:09:01.800Z,11.20
2023-12-20T22:11:30.165Z,11.21
2023-12-20T22:13:58.603Z,11.21
2023-12-20T22:16:27.102Z,11.23
2023-12-20T22:18:58.518Z,11.23
2023-12-20T22:21:26.940Z,11.24
2023-12-20T22:23:55.731Z,11.24
2023-12-20T22:26:24.352Z,11.25
2023-12-20T22:28:53.150Z,11.24
2023-12-20T22:31:21.608Z,11.25
2023-12-20T22:33:50.026Z,11.25
2023-12-20T22:36:19.744Z,11.26
2023-12-20T22:38:48.148Z,11.28
2023-12-20T22:41:18.295Z,11.27
2023-12-20T22:43:46.671Z,11.30
2023-12-20T22:46:15.271Z,11.31
2023-12-20T22:48:43.892Z,11.33
2023-12-20T22:51:12.327Z,11.34
2023-12-20T22:53:40.755Z,11.34
2023-12-20T22:56:09.698Z,11.33
2023-12-20T22:58:39.487Z,11.33
2023-12-20T23:01:08.033Z,11.35
2023-12-20T23:03:37.613Z,11.35
2023-12-20T23:06:07.039Z,11.34
2023-12-20T23:08:35.514Z,11.32
2023-12-20T23:11:03.931Z,11.31
2023-12-20T23:13:32.596Z,11.30
2023-12-20T23:16:02.511Z,11.29
2023-12-20T23:18:30.968Z,11.29
2023-12-20T23:20:59.426Z,11.26
2023-12-20T23:23:28.538Z,11.27
2023-12-20T23:25:56.940Z,11.26
2023-12-20T23:28:25.437Z,11.26
2023-12-20T23:30:53.887Z,11.26
2023-12-20T23:33:24.399Z,11.27
2023-12-20T23:35:52.872Z,11.27
2023-12-20T23:38:21.223Z,11.25
2023-12-20T23:40:49.613Z,11.26
2023-12-20T23:43:18.112Z,11.28
2023-12-20T23:45:46.514Z,11.25
2023-12-20T23:48:14.933Z,11.26
2023-12-20T23:50:44.831Z,11.26
2023-12-20T23:53:13.277Z,11.25
2023-12-20T23:55:41.946Z,11.24
2023-12-20T23:58:10.572Z,11.23
